sensor_id;sensor_type;location;lat;lon;timestamp;pressure;altitude;pressure_sealevel;temperature;humidity
10462;BME280;5278;42.656;23.374;2023-06-10T00:02:01;94244.38;;;20.05;97.31
10462;BME280;5278;42.656;23.374;2023-06-10T00:04:29;94247.91;;;20.11;97.72
10462;BME280;5278;42.656;23.374;2023-06-10T00:06:56;94241.59;;;20.12;97.79
10462;BME280;5278;42.656;23.374;2023-06-10T00:09:22;94246.59;;;20.13;97.64
10462;BME280;5278;42.656;23.374;2023-06-10T00:11:52;94242.13;;;20.14;97.56
10462;BME280;5278;42.656;23.374;2023-06-10T00:14:19;94251.72;;;20.20;96.97
10462;BME280;5278;42.656;23.374;2023-06-10T00:16:48;94243.16;;;20.13;96.84
10462;BME280;5278;42.656;23.374;2023-06-10T00:19:17;94253.78;;;20.18;97.04
10462;BME280;5278;42.656;23.374;2023-06-10T00:21:45;94249.25;;;20.13;97.20
10462;BME280;5278;42.656;23.374;2023-06-10T00:24:12;94246.06;;;20.11;97.03
10462;BME280;5278;42.656;23.374;2023-06-10T00:26:39;94242.06;;;20.09;97.07
10462;BME280;5278;42.656;23.374;2023-06-10T00:29:06;94249.66;;;20.05;97.40
10462;BME280;5278;42.656;23.374;2023-06-10T00:31:33;94248.63;;;20.06;97.37
10462;BME280;5278;42.656;23.374;2023-06-10T00:34:02;94245.13;;;20.01;97.77
10462;BME280;5278;42.656;23.374;2023-06-10T00:36:29;94258.31;;;20.01;97.73
10462;BME280;5278;42.656;23.374;2023-06-10T00:38:56;94257.66;;;20.10;97.13
10462;BME280;5278;42.656;23.374;2023-06-10T00:41:24;94251.88;;;20.13;96.81
10462;BME280;5278;42.656;23.374;2023-06-10T00:43:52;94256.34;;;20.13;96.88
10462;BME280;5278;42.656;23.374;2023-06-10T00:46:20;94252.69;;;20.14;97.11
10462;BME280;5278;42.656;23.374;2023-06-10T00:48:47;94258.53;;;20.16;97.10
10462;BME280;5278;42.656;23.374;2023-06-10T00:51:18;94254.84;;;20.17;97.14
10462;BME280;5278;42.656;23.374;2023-06-10T00:53:45;94254.44;;;20.08;97.14
10462;BME280;5278;42.656;23.374;2023-06-10T00:56:13;94251.50;;;20.05;97.35
10462;BME280;5278;42.656;23.374;2023-06-10T00:58:41;94251.34;;;20.11;97.39
10462;BME280;5278;42.656;23.374;2023-06-10T01:01:08;94256.06;;;20.09;97.62
10462;BME280;5278;42.656;23.374;2023-06-10T01:03:36;94254.13;;;20.05;97.88
10462;BME280;5278;42.656;23.374;2023-06-10T01:06:09;94250.47;;;20.06;97.56
10462;BME280;5278;42.656;23.374;2023-06-10T01:08:49;94247.75;;;20.01;97.57
10462;BME280;5278;42.656;23.374;2023-06-10T01:11:21;94253.41;;;20.09;97.62
10462;BME280;5278;42.656;23.374;2023-06-10T01:13:51;94250.28;;;20.12;97.94
10462;BME280;5278;42.656;23.374;2023-06-10T01:16:19;94260.59;;;20.14;97.78
10462;BME280;5278;42.656;23.374;2023-06-10T01:18:46;94252.38;;;20.10;98.41
10462;BME280;5278;42.656;23.374;2023-06-10T01:21:19;94258.91;;;20.08;98.21
10462;BME280;5278;42.656;23.374;2023-06-10T01:23:50;94259.97;;;20.07;98.51
10462;BME280;5278;42.656;23.374;2023-06-10T01:26:24;94264.69;;;20.05;98.41
10462;BME280;5278;42.656;23.374;2023-06-10T01:28:57;94263.28;;;19.97;99.02
10462;BME280;5278;42.656;23.374;2023-06-10T01:31:31;94260.56;;;19.92;99.45
10462;BME280;5278;42.656;23.374;2023-06-10T01:34:07;94246.56;;;19.92;99.43
10462;BME280;5278;42.656;23.374;2023-06-10T01:36:37;94254.56;;;19.97;99.45
10462;BME280;5278;42.656;23.374;2023-06-10T01:39:04;94255.59;;;19.96;99.48
10462;BME280;5278;42.656;23.374;2023-06-10T01:41:34;94260.38;;;19.99;99.21
10462;BME280;5278;42.656;23.374;2023-06-10T01:44:01;94254.63;;;20.02;99.30
10462;BME280;5278;42.656;23.374;2023-06-10T01:46:28;94261.47;;;20.03;99.02
10462;BME280;5278;42.656;23.374;2023-06-10T01:48:55;94255.44;;;20.02;99.23
10462;BME280;5278;42.656;23.374;2023-06-10T01:51:23;94259.91;;;20.02;99.18
10462;BME280;5278;42.656;23.374;2023-06-10T01:53:51;94246.72;;;20.02;99.10
10462;BME280;5278;42.656;23.374;2023-06-10T01:56:18;94248.06;;;20.04;99.19
10462;BME280;5278;42.656;23.374;2023-06-10T01:58:46;94248.38;;;20.08;98.84
10462;BME280;5278;42.656;23.374;2023-06-10T02:01:13;94245.72;;;20.08;98.83
10462;BME280;5278;42.656;23.374;2023-06-10T02:03:40;94237.41;;;20.16;99.01
10462;BME280;5278;42.656;23.374;2023-06-10T02:06:07;94237.88;;;20.13;98.88
10462;BME280;5278;42.656;23.374;2023-06-10T02:08:34;94242.78;;;20.21;98.72
10462;BME280;5278;42.656;23.374;2023-06-10T02:11:05;94242.50;;;20.23;98.55
10462;BME280;5278;42.656;23.374;2023-06-10T02:13:33;94237.41;;;20.16;98.30
10462;BME280;5278;42.656;23.374;2023-06-10T02:16:00;94237.88;;;20.13;98.52
10462;BME280;5278;42.656;23.374;2023-06-10T02:18:28;94236.78;;;20.09;98.40
10462;BME280;5278;42.656;23.374;2023-06-10T02:20:55;94238.31;;;20.05;98.50
10462;BME280;5278;42.656;23.374;2023-06-10T02:23:22;94232.88;;;20.11;98.75
10462;BME280;5278;42.656;23.374;2023-06-10T02:25:49;94228.88;;;20.09;98.69
10462;BME280;5278;42.656;23.374;2023-06-10T02:28:17;94227.19;;;20.03;98.72
10462;BME280;5278;42.656;23.374;2023-06-10T02:30:44;94219.28;;;20.03;98.85
10462;BME280;5278;42.656;23.374;2023-06-10T02:33:12;94216.91;;;20.01;98.87
10462;BME280;5278;42.656;23.374;2023-06-10T02:35:39;94209.97;;;19.95;99.37
10462;BME280;5278;42.656;23.374;2023-06-10T02:38:06;94213.09;;;19.92;99.31
10462;BME280;5278;42.656;23.374;2023-06-10T02:40:33;94212.09;;;19.98;99.45
10462;BME280;5278;42.656;23.374;2023-06-10T02:43:01;94218.25;;;20.04;99.32
10462;BME280;5278;42.656;23.374;2023-06-10T02:45:30;94204.59;;;20.07;98.99
10462;BME280;5278;42.656;23.374;2023-06-10T02:47:57;94211.94;;;20.05;99.54
10462;BME280;5278;42.656;23.374;2023-06-10T02:50:24;94213.03;;;20.09;100.00
10462;BME280;5278;42.656;23.374;2023-06-10T02:52:51;94209.38;;;20.10;100.00
10462;BME280;5278;42.656;23.374;2023-06-10T02:55:18;94202.03;;;20.12;100.00
10462;BME280;5278;42.656;23.374;2023-06-10T02:57:47;94208.41;;;20.16;99.82
10462;BME280;5278;42.656;23.374;2023-06-10T03:00:15;94203.94;;;20.16;99.12
10462;BME280;5278;42.656;23.374;2023-06-10T03:02:47;94205.75;;;20.16;99.18
10462;BME280;5278;42.656;23.374;2023-06-10T03:05:14;94202.03;;;20.12;99.08
10462;BME280;5278;42.656;23.374;2023-06-10T03:07:42;94202.19;;;20.05;99.21
10462;BME280;5278;42.656;23.374;2023-06-10T03:10:10;94198.81;;;20.10;99.17
10462;BME280;5278;42.656;23.374;2023-06-10T03:12:37;94212.97;;;20.04;99.32
10462;BME280;5278;42.656;23.374;2023-06-10T03:15:05;94216.03;;;19.96;99.49
10462;BME280;5278;42.656;23.374;2023-06-10T03:17:32;94216.03;;;19.96;98.99
10462;BME280;5278;42.656;23.374;2023-06-10T03:20:00;94213.09;;;19.92;99.58
10462;BME280;5278;42.656;23.374;2023-06-10T03:22:28;94207.81;;;19.92;100.00
10462;BME280;5278;42.656;23.374;2023-06-10T03:24:56;94216.56;;;19.98;100.00
10462;BME280;5278;42.656;23.374;2023-06-10T03:27:23;94219.84;;;20.05;100.00
10462;BME280;5278;42.656;23.374;2023-06-10T03:29:51;94218.38;;;20.14;100.00
10462;BME280;5278;42.656;23.374;2023-06-10T03:32:18;94207.22;;;20.07;100.00
10462;BME280;5278;42.656;23.374;2023-06-10T03:34:45;94232.69;;;20.18;100.00
10462;BME280;5278;42.656;23.374;2023-06-10T03:37:14;94246.94;;;20.17;100.00
10462;BME280;5278;42.656;23.374;2023-06-10T03:39:41;94232.94;;;20.16;100.00
10462;BME280;5278;42.656;23.374;2023-06-10T03:42:08;94240.38;;;20.19;100.00
10462;BME280;5278;42.656;23.374;2023-06-10T03:44:36;94229.56;;;20.21;100.00
10462;BME280;5278;42.656;23.374;2023-06-10T03:47:03;94235.88;;;20.20;100.00
10462;BME280;5278;42.656;23.374;2023-06-10T03:49:31;94236.75;;;20.26;100.00
10462;BME280;5278;42.656;23.374;2023-06-10T03:51:58;94238.28;;;20.22;100.00
10462;BME280;5278;42.656;23.374;2023-06-10T03:54:27;94233.97;;;20.15;100.00
10462;BME280;5278;42.656;23.374;2023-06-10T03:56:54;94238.00;;;20.01;100.00
10462;BME280;5278;42.656;23.374;2023-06-10T03:59:22;94231.28;;;19.94;100.00
10462;BME280;5278;42.656;23.374;2023-06-10T04:01:50;94231.78;;;19.91;100.00
10462;BME280;5278;42.656;23.374;2023-06-10T04:04:17;94227.78;;;19.88;100.00
10462;BME280;5278;42.656;23.374;2023-06-10T04:06:44;94231.28;;;19.94;100.00
10462;BME280;5278;42.656;23.374;2023-06-10T04:09:11;94238.41;;;19.93;100.00
10462;BME280;5278;42.656;23.374;2023-06-10T04:11:40;94236.03;;;19.92;100.00
10462;BME280;5278;42.656;23.374;2023-06-10T04:14:07;94239.19;;;19.94;100.00
10462;BME280;5278;42.656;23.374;2023-06-10T04:16:34;94233.94;;;19.94;100.00
10462;BME280;5278;42.656;23.374;2023-06-10T04:19:03;94241.59;;;19.95;100.00
10462;BME280;5278;42.656;23.374;2023-06-10T04:21:31;94244.47;;;19.94;100.00
10462;BME280;5278;42.656;23.374;2023-06-10T04:23:58;94243.28;;;20.01;100.00
10462;BME280;5278;42.656;23.374;2023-06-10T04:26:25;94244.25;;;19.95;100.00
10462;BME280;5278;42.656;23.374;2023-06-10T04:28:53;94246.31;;;19.93;100.00
10462;BME280;5278;42.656;23.374;2023-06-10T04:31:21;94246.56;;;19.92;100.00
10462;BME280;5278;42.656;23.374;2023-06-10T04:33:47;94246.56;;;19.92;100.00
10462;BME280;5278;42.656;23.374;2023-06-10T04:36:14;94250.56;;;19.94;100.00
10462;BME280;5278;42.656;23.374;2023-06-10T04:38:43;94253.91;;;19.90;100.00
10462;BME280;5278;42.656;23.374;2023-06-10T04:41:11;94253.03;;;19.84;100.00
10462;BME280;5278;42.656;23.374;2023-06-10T04:43:38;94242.78;;;19.88;100.00
10462;BME280;5278;42.656;23.374;2023-06-10T04:46:06;94243.13;;;19.91;100.00
10462;BME280;5278;42.656;23.374;2023-06-10T04:48:33;94235.28;;;19.96;100.00
10462;BME280;5278;42.656;23.374;2023-06-10T04:51:02;94243.09;;;20.08;100.00
10462;BME280;5278;42.656;23.374;2023-06-10T04:53:30;94243.72;;;20.15;100.00
10462;BME280;5278;42.656;23.374;2023-06-10T04:55:57;94245.81;;;20.13;100.00
10462;BME280;5278;42.656;23.374;2023-06-10T04:58:25;94238.88;;;20.07;100.00
10462;BME280;5278;42.656;23.374;2023-06-10T05:00:52;94234.34;;;20.02;100.00
10462;BME280;5278;42.656;23.374;2023-06-10T05:03:21;94248.94;;;20.10;99.31
10462;BME280;5278;42.656;23.374;2023-06-10T05:05:47;94240.38;;;20.03;98.76
10462;BME280;5278;42.656;23.374;2023-06-10T05:08:14;94230.19;;;19.90;99.03
10462;BME280;5278;42.656;23.374;2023-06-10T05:10:41;94244.88;;;20.02;99.24
10462;BME280;5278;42.656;23.374;2023-06-10T05:13:08;94246.78;;;20.07;98.96
10462;BME280;5278;42.656;23.374;2023-06-10T05:15:35;94253.72;;;20.13;98.50
10462;BME280;5278;42.656;23.374;2023-06-10T05:18:02;94243.25;;;20.18;98.00
10462;BME280;5278;42.656;23.374;2023-06-10T05:20:30;94238.28;;;20.22;97.99
10462;BME280;5278;42.656;23.374;2023-06-10T05:22:58;94233.97;;;20.32;97.98
10462;BME280;5278;42.656;23.374;2023-06-10T05:25:26;94198.94;;;20.20;96.83
10462;BME280;5278;42.656;23.374;2023-06-10T05:27:53;94242.63;;;20.49;96.50
10462;BME280;5278;42.656;23.374;2023-06-10T05:30:20;94241.09;;;20.53;94.89
10462;BME280;5278;42.656;23.374;2023-06-10T05:32:47;94196.38;;;20.25;95.24
10462;BME280;5278;42.656;23.374;2023-06-10T05:35:16;94247.47;;;20.57;95.38
10462;BME280;5278;42.656;23.374;2023-06-10T05:37:45;94244.91;;;20.62;95.35
10462;BME280;5278;42.656;23.374;2023-06-10T05:40:12;94243.94;;;20.69;95.26
10462;BME280;5278;42.656;23.374;2023-06-10T05:42:39;94241.66;;;20.77;95.90
10462;BME280;5278;42.656;23.374;2023-06-10T05:45:08;94239.69;;;20.89;95.68
10462;BME280;5278;42.656;23.374;2023-06-10T05:47:36;94248.47;;;20.95;94.61
10462;BME280;5278;42.656;23.374;2023-06-10T05:50:04;94251.28;;;21.10;94.47
10462;BME280;5278;42.656;23.374;2023-06-10T05:52:32;94251.00;;;21.33;95.39
10462;BME280;5278;42.656;23.374;2023-06-10T05:55:00;94253.88;;;21.59;95.05
10462;BME280;5278;42.656;23.374;2023-06-10T05:57:28;94252.25;;;21.84;93.87
10462;BME280;5278;42.656;23.374;2023-06-10T05:59:55;94250.06;;;22.08;92.58
10462;BME280;5278;42.656;23.374;2023-06-10T06:02:21;94253.94;;;22.38;90.81
10462;BME280;5278;42.656;23.374;2023-06-10T06:04:49;94261.84;;;22.74;88.76
10462;BME280;5278;42.656;23.374;2023-06-10T06:07:15;94257.16;;;23.02;87.62
10462;BME280;5278;42.656;23.374;2023-06-10T06:09:43;94257.50;;;23.15;86.96
10462;BME280;5278;42.656;23.374;2023-06-10T06:12:11;94250.09;;;23.28;86.70
10462;BME280;5278;42.656;23.374;2023-06-10T06:14:38;94248.75;;;23.20;86.13
10462;BME280;5278;42.656;23.374;2023-06-10T06:17:05;94252.72;;;23.28;85.58
10462;BME280;5278;42.656;23.374;2023-06-10T06:19:32;94254.91;;;23.36;85.27
10462;BME280;5278;42.656;23.374;2023-06-10T06:21:59;94253.34;;;23.45;84.49
10462;BME280;5278;42.656;23.374;2023-06-10T06:24:26;94245.41;;;23.55;84.06
10462;BME280;5278;42.656;23.374;2023-06-10T06:26:54;94252.56;;;23.59;83.78
10462;BME280;5278;42.656;23.374;2023-06-10T06:29:23;94254.41;;;23.64;83.06
10462;BME280;5278;42.656;23.374;2023-06-10T06:31:50;94247.25;;;23.75;83.82
10462;BME280;5278;42.656;23.374;2023-06-10T06:34:19;94253.88;;;23.87;82.73
10462;BME280;5278;42.656;23.374;2023-06-10T06:36:46;94248.56;;;23.92;81.97
10462;BME280;5278;42.656;23.374;2023-06-10T06:39:13;94260.25;;;24.01;81.57
10462;BME280;5278;42.656;23.374;2023-06-10T06:41:40;94253.63;;;24.09;81.52
10462;BME280;5278;42.656;23.374;2023-06-10T06:44:08;94247.28;;;24.20;81.41
10462;BME280;5278;42.656;23.374;2023-06-10T06:46:36;94249.09;;;24.40;80.26
10462;BME280;5278;42.656;23.374;2023-06-10T06:49:03;94240.53;;;24.53;79.38
10462;BME280;5278;42.656;23.374;2023-06-10T06:51:30;94237.06;;;24.58;78.80
10462;BME280;5278;42.656;23.374;2023-06-10T06:53:57;94239.16;;;24.66;78.48
10462;BME280;5278;42.656;23.374;2023-06-10T06:56:24;94247.63;;;24.78;77.71
10462;BME280;5278;42.656;23.374;2023-06-10T06:58:52;94240.97;;;24.85;76.89
10462;BME280;5278;42.656;23.374;2023-06-10T07:01:19;94224.50;;;24.89;75.03
10462;BME280;5278;42.656;23.374;2023-06-10T07:03:47;94235.53;;;25.11;73.29
10462;BME280;5278;42.656;23.374;2023-06-10T07:06:15;94231.47;;;25.28;72.17
10462;BME280;5278;42.656;23.374;2023-06-10T07:08:41;94234.75;;;25.59;70.76
10462;BME280;5278;42.656;23.374;2023-06-10T07:11:09;94232.19;;;25.83;69.59
10462;BME280;5278;42.656;23.374;2023-06-10T07:13:35;94230.09;;;26.09;69.10
10462;BME280;5278;42.656;23.374;2023-06-10T07:16:03;94227.66;;;26.41;66.68
10462;BME280;5278;42.656;23.374;2023-06-10T07:18:30;94224.25;;;26.83;63.86
10462;BME280;5278;42.656;23.374;2023-06-10T07:20:58;94220.97;;;27.34;61.50
10462;BME280;5278;42.656;23.374;2023-06-10T07:23:25;94216.69;;;27.70;60.78
10462;BME280;5278;42.656;23.374;2023-06-10T07:25:52;94208.19;;;28.33;58.96
10462;BME280;5278;42.656;23.374;2023-06-10T07:28:19;94213.09;;;28.72;56.98
10462;BME280;5278;42.656;23.374;2023-06-10T07:30:46;94217.50;;;29.18;56.50
10462;BME280;5278;42.656;23.374;2023-06-10T07:33:13;94213.84;;;29.63;53.06
10462;BME280;5278;42.656;23.374;2023-06-10T07:35:40;94209.34;;;29.94;51.84
10462;BME280;5278;42.656;23.374;2023-06-10T07:38:10;94215.28;;;30.36;49.91
10462;BME280;5278;42.656;23.374;2023-06-10T07:40:36;94206.41;;;30.27;50.40
10462;BME280;5278;42.656;23.374;2023-06-10T07:43:03;94206.84;;;30.20;49.74
10462;BME280;5278;42.656;23.374;2023-06-10T07:45:30;94205.88;;;30.16;50.17
10462;BME280;5278;42.656;23.374;2023-06-10T07:47:57;94208.06;;;30.14;50.57
10462;BME280;5278;42.656;23.374;2023-06-10T07:50:24;94207.13;;;30.89;47.54
10462;BME280;5278;42.656;23.374;2023-06-10T07:52:51;94203.84;;;31.66;45.51
10462;BME280;5278;42.656;23.374;2023-06-10T07:55:19;94208.41;;;32.17;43.32
10462;BME280;5278;42.656;23.374;2023-06-10T07:57:46;94186.00;;;32.42;42.02
10462;BME280;5278;42.656;23.374;2023-06-10T08:00:13;94202.59;;;32.91;39.19
10462;BME280;5278;42.656;23.374;2023-06-10T08:02:40;94204.94;;;33.51;38.97
10462;BME280;5278;42.656;23.374;2023-06-10T08:05:08;94206.59;;;33.85;37.82
10462;BME280;5278;42.656;23.374;2023-06-10T08:07:35;94203.16;;;33.97;36.42
10462;BME280;5278;42.656;23.374;2023-06-10T08:10:03;94207.47;;;34.31;35.49
10462;BME280;5278;42.656;23.374;2023-06-10T08:12:33;94202.84;;;34.76;34.75
10462;BME280;5278;42.656;23.374;2023-06-10T08:15:01;94204.19;;;35.31;33.75
10462;BME280;5278;42.656;23.374;2023-06-10T08:17:29;94191.03;;;35.97;32.49
10462;BME280;5278;42.656;23.374;2023-06-10T08:19:56;94191.22;;;36.32;31.30
10462;BME280;5278;42.656;23.374;2023-06-10T08:22:23;94196.91;;;36.27;30.99
10462;BME280;5278;42.656;23.374;2023-06-10T08:24:50;94197.28;;;36.41;28.38
10462;BME280;5278;42.656;23.374;2023-06-10T08:27:17;94190.50;;;36.63;28.10
10462;BME280;5278;42.656;23.374;2023-06-10T08:29:45;94166.91;;;37.11;26.91
10462;BME280;5278;42.656;23.374;2023-06-10T08:32:13;94176.16;;;37.44;28.94
10462;BME280;5278;42.656;23.374;2023-06-10T08:34:40;94178.34;;;37.74;27.45
10462;BME280;5278;42.656;23.374;2023-06-10T08:37:07;94173.25;;;37.72;27.79
10462;BME280;5278;42.656;23.374;2023-06-10T08:39:35;94170.13;;;37.70;27.85
10462;BME280;5278;42.656;23.374;2023-06-10T08:42:11;94172.34;;;37.84;26.21
10462;BME280;5278;42.656;23.374;2023-06-10T08:44:40;94172.91;;;37.93;24.71
10462;BME280;5278;42.656;23.374;2023-06-10T08:47:13;94153.91;;;37.93;25.23
10462;BME280;5278;42.656;23.374;2023-06-10T08:49:44;94172.06;;;38.08;25.44
10462;BME280;5278;42.656;23.374;2023-06-10T08:52:14;94169.75;;;38.29;25.29
10462;BME280;5278;42.656;23.374;2023-06-10T08:54:43;94165.72;;;38.01;25.45
10462;BME280;5278;42.656;23.374;2023-06-10T08:57:15;94160.06;;;38.32;25.19
10462;BME280;5278;42.656;23.374;2023-06-10T08:59:44;94158.72;;;38.00;24.82
10462;BME280;5278;42.656;23.374;2023-06-10T09:02:14;94150.66;;;38.26;24.64
10462;BME280;5278;42.656;23.374;2023-06-10T09:04:46;94157.91;;;38.41;24.48
10462;BME280;5278;42.656;23.374;2023-06-10T09:07:13;94158.41;;;38.92;25.63
10462;BME280;5278;42.656;23.374;2023-06-10T09:09:42;94149.03;;;39.39;22.53
10462;BME280;5278;42.656;23.374;2023-06-10T09:12:14;94148.22;;;39.98;22.33
10462;BME280;5278;42.656;23.374;2023-06-10T09:14:41;94130.00;;;40.06;21.99
10462;BME280;5278;42.656;23.374;2023-06-10T09:17:09;94144.53;;;40.57;22.29
10462;BME280;5278;42.656;23.374;2023-06-10T09:19:38;94141.00;;;41.01;22.67
10462;BME280;5278;42.656;23.374;2023-06-10T09:22:06;94139.66;;;40.36;22.14
10462;BME280;5278;42.656;23.374;2023-06-10T09:24:33;94137.25;;;40.68;22.49
10462;BME280;5278;42.656;23.374;2023-06-10T09:27:05;94133.56;;;40.94;23.26
10462;BME280;5278;42.656;23.374;2023-06-10T09:29:45;94129.03;;;41.16;21.55
10462;BME280;5278;42.656;23.374;2023-06-10T09:32:12;94126.22;;;41.71;20.61
10462;BME280;5278;42.656;23.374;2023-06-10T09:34:41;94134.94;;;41.94;20.07
10462;BME280;5278;42.656;23.374;2023-06-10T09:37:08;94135.09;;;42.82;19.82
10462;BME280;5278;42.656;23.374;2023-06-10T09:39:38;94129.56;;;43.32;17.94
10462;BME280;5278;42.656;23.374;2023-06-10T09:42:15;94130.00;;;42.63;18.23
10462;BME280;5278;42.656;23.374;2023-06-10T09:44:49;94126.09;;;42.82;19.50
10462;BME280;5278;42.656;23.374;2023-06-10T09:47:20;94125.28;;;42.60;19.41
10462;BME280;5278;42.656;23.374;2023-06-10T09:49:49;94125.69;;;42.59;19.29
10462;BME280;5278;42.656;23.374;2023-06-10T09:52:21;94108.91;;;42.74;19.75
10462;BME280;5278;42.656;23.374;2023-06-10T09:54:50;94110.81;;;42.95;19.10
10462;BME280;5278;42.656;23.374;2023-06-10T09:57:18;94114.66;;;42.09;20.21
10462;BME280;5278;42.656;23.374;2023-06-10T09:59:45;94112.44;;;40.84;21.27
10462;BME280;5278;42.656;23.374;2023-06-10T10:02:16;94115.88;;;40.74;21.52
10462;BME280;5278;42.656;23.374;2023-06-10T10:04:43;94108.34;;;41.11;20.06
10462;BME280;5278;42.656;23.374;2023-06-10T10:07:12;94103.13;;;41.50;19.78
10462;BME280;5278;42.656;23.374;2023-06-10T10:09:40;94118.53;;;41.94;19.47
10462;BME280;5278;42.656;23.374;2023-06-10T10:12:10;94101.09;;;42.69;19.30
10462;BME280;5278;42.656;23.374;2023-06-10T10:14:38;94098.34;;;42.83;19.43
10462;BME280;5278;42.656;23.374;2023-06-10T10:17:10;94093.25;;;42.61;19.39
10462;BME280;5278;42.656;23.374;2023-06-10T10:19:43;94059.22;;;42.26;19.33
10462;BME280;5278;42.656;23.374;2023-06-10T10:22:19;94090.94;;;42.84;19.15
10462;BME280;5278;42.656;23.374;2023-06-10T10:24:50;94079.97;;;42.31;19.24
10462;BME280;5278;42.656;23.374;2023-06-10T10:27:18;94086.53;;;42.05;19.10
10462;BME280;5278;42.656;23.374;2023-06-10T10:29:52;94087.13;;;41.49;19.58
10462;BME280;5278;42.656;23.374;2023-06-10T10:32:21;94090.41;;;41.90;19.21
10462;BME280;5278;42.656;23.374;2023-06-10T10:34:56;94083.41;;;41.89;19.54
10462;BME280;5278;42.656;23.374;2023-06-10T10:37:28;94081.31;;;41.57;19.71
10462;BME280;5278;42.656;23.374;2023-06-10T10:39:55;94078.53;;;41.47;20.37
10462;BME280;5278;42.656;23.374;2023-06-10T10:42:23;94078.63;;;41.72;20.77
10462;BME280;5278;42.656;23.374;2023-06-10T10:44:52;94071.91;;;41.51;20.96
10462;BME280;5278;42.656;23.374;2023-06-10T10:47:21;94068.63;;;41.14;20.84
10462;BME280;5278;42.656;23.374;2023-06-10T10:49:51;94070.84;;;40.47;21.98
10462;BME280;5278;42.656;23.374;2023-06-10T10:52:19;94074.75;;;39.38;23.25
10462;BME280;5278;42.656;23.374;2023-06-10T10:54:48;94070.25;;;38.21;23.88
10462;BME280;5278;42.656;23.374;2023-06-10T10:57:17;94063.44;;;37.28;25.42
10462;BME280;5278;42.656;23.374;2023-06-10T10:59:55;94069.53;;;36.55;26.17
10462;BME280;5278;42.656;23.374;2023-06-10T11:02:36;94069.94;;;35.78;27.73
10462;BME280;5278;42.656;23.374;2023-06-10T11:05:06;94065.56;;;35.06;28.96
10462;BME280;5278;42.656;23.374;2023-06-10T11:07:35;94064.06;;;34.44;28.70
10462;BME280;5278;42.656;23.374;2023-06-10T11:10:07;94063.91;;;34.04;29.81
10462;BME280;5278;42.656;23.374;2023-06-10T11:12:51;94057.31;;;33.48;30.52
10462;BME280;5278;42.656;23.374;2023-06-10T11:15:19;94060.78;;;33.37;30.42
10462;BME280;5278;42.656;23.374;2023-06-10T11:18:06;94058.28;;;33.11;29.75
10462;BME280;5278;42.656;23.374;2023-06-10T11:20:51;94047.31;;;32.95;29.69
10462;BME280;5278;42.656;23.374;2023-06-10T11:23:29;94036.47;;;32.83;29.74
10462;BME280;5278;42.656;23.374;2023-06-10T11:26:33;94008.53;;;32.46;30.64
10462;BME280;5278;42.656;23.374;2023-06-10T11:29:08;94045.69;;;33.03;29.90
10462;BME280;5278;42.656;23.374;2023-06-10T11:31:46;94035.03;;;33.06;29.67
10462;BME280;5278;42.656;23.374;2023-06-10T11:34:13;94028.97;;;33.09;29.92
10462;BME280;5278;42.656;23.374;2023-06-10T11:36:42;94030.69;;;33.35;30.25
10462;BME280;5278;42.656;23.374;2023-06-10T11:39:11;94023.34;;;33.56;30.03
10462;BME280;5278;42.656;23.374;2023-06-10T11:41:40;94013.94;;;33.74;30.90
10462;BME280;5278;42.656;23.374;2023-06-10T11:44:09;94021.75;;;34.12;29.31
10462;BME280;5278;42.656;23.374;2023-06-10T11:46:36;94009.84;;;34.25;29.49
10462;BME280;5278;42.656;23.374;2023-06-10T11:49:04;94027.16;;;34.12;28.33
10462;BME280;5278;42.656;23.374;2023-06-10T11:51:34;94023.06;;;33.37;29.22
10462;BME280;5278;42.656;23.374;2023-06-10T11:54:05;94017.75;;;33.07;29.74
10462;BME280;5278;42.656;23.374;2023-06-10T11:56:32;94004.22;;;32.74;29.93
10462;BME280;5278;42.656;23.374;2023-06-10T11:59:02;94016.81;;;32.62;30.14
10462;BME280;5278;42.656;23.374;2023-06-10T12:01:33;93990.69;;;32.03;30.66
10462;BME280;5278;42.656;23.374;2023-06-10T12:04:02;94019.13;;;32.22;30.82
10462;BME280;5278;42.656;23.374;2023-06-10T12:06:38;93985.91;;;31.80;31.48
10462;BME280;5278;42.656;23.374;2023-06-10T12:09:07;94012.53;;;31.73;30.98
10462;BME280;5278;42.656;23.374;2023-06-10T12:11:34;94018.25;;;31.45;30.97
10462;BME280;5278;42.656;23.374;2023-06-10T12:14:03;94008.28;;;31.46;31.00
10462;BME280;5278;42.656;23.374;2023-06-10T12:16:32;94013.97;;;31.53;30.83
10462;BME280;5278;42.656;23.374;2023-06-10T12:19:03;93987.53;;;31.63;31.39
10462;BME280;5278;42.656;23.374;2023-06-10T12:21:32;94000.63;;;31.74;31.89
10462;BME280;5278;42.656;23.374;2023-06-10T12:24:07;93997.88;;;31.91;31.60
10462;BME280;5278;42.656;23.374;2023-06-10T12:26:44;93968.78;;;31.93;31.67
10462;BME280;5278;42.656;23.374;2023-06-10T12:29:20;93997.28;;;32.44;31.23
10462;BME280;5278;42.656;23.374;2023-06-10T12:31:56;93999.97;;;32.44;30.75
10462;BME280;5278;42.656;23.374;2023-06-10T12:34:31;93991.72;;;32.49;29.66
10462;BME280;5278;42.656;23.374;2023-06-10T12:36:58;93995.13;;;32.67;30.07
10462;BME280;5278;42.656;23.374;2023-06-10T12:39:26;93992.22;;;32.72;28.69
10462;BME280;5278;42.656;23.374;2023-06-10T12:41:54;93991.22;;;32.56;28.41
10462;BME280;5278;42.656;23.374;2023-06-10T12:44:33;93982.06;;;32.27;29.35
10462;BME280;5278;42.656;23.374;2023-06-10T12:47:01;93978.50;;;32.15;30.82
10462;BME280;5278;42.656;23.374;2023-06-10T12:49:33;93967.88;;;32.10;29.50
10462;BME280;5278;42.656;23.374;2023-06-10T12:52:01;93976.59;;;32.15;28.87
10462;BME280;5278;42.656;23.374;2023-06-10T12:54:29;93963.44;;;32.22;29.69
10462;BME280;5278;42.656;23.374;2023-06-10T12:56:56;93979.03;;;32.29;29.08
10462;BME280;5278;42.656;23.374;2023-06-10T12:59:23;93979.16;;;32.12;29.49
10462;BME280;5278;42.656;23.374;2023-06-10T13:01:53;93953.22;;;31.98;29.32
10462;BME280;5278;42.656;23.374;2023-06-10T13:04:21;93980.69;;;32.21;29.86
10462;BME280;5278;42.656;23.374;2023-06-10T13:06:48;93981.31;;;32.18;32.31
10462;BME280;5278;42.656;23.374;2023-06-10T13:09:16;93975.28;;;32.21;32.10